createdAt,value
2019-01-24T00:03:58.906Z,11.97
2019-01-24T00:14:04.278Z,11.73
2019-01-24T00:24:09.652Z,12.20
2019-01-24T00:34:15.050Z,12.37
2019-01-24T00:44:20.376Z,10.83
2019-01-24T00:54:25.690Z,11.27
2019-01-24T01:04:30.938Z,9.87
2019-01-24T01:14:37.296Z,10.07
2019-01-24T01:24:42.702Z,9.20
2019-01-24T01:34:48.006Z,8.30
2019-01-24T01:44:53.243Z,9.07
2019-01-24T01:54:58.542Z,7.57
2019-01-24T02:05:04.365Z,8.60
2019-01-24T02:15:10.650Z,8.73
2019-01-24T02:25:16.055Z,7.77
2019-01-24T02:35:21.334Z,7.23
2019-01-24T02:45:26.705Z,7.60
2019-01-24T02:55:32.499Z,7.77
2019-01-24T03:05:37.787Z,7.90
2019-01-24T03:15:43.081Z,7.47
2019-01-24T03:25:48.432Z,7.20
2019-01-24T03:35:53.755Z,7.47
2019-01-24T03:45:58.962Z,8.83
2019-01-24T03:56:04.338Z,8.33
2019-01-24T04:06:09.725Z,7.03
2019-01-24T04:16:15.141Z,6.97
2019-01-24T04:26:20.472Z,6.97
2019-01-24T04:36:25.750Z,6.57
2019-01-24T04:46:31.067Z,5.07
2019-01-24T04:56:37.321Z,5.27
2019-01-24T05:06:42.655Z,7.37
2019-01-24T05:16:48.038Z,6.90
2019-01-24T05:26:53.358Z,6.83
2019-01-24T05:36:58.687Z,7.57
2019-01-24T05:47:04.013Z,6.83
2019-01-24T05:57:09.365Z,7.20
2019-01-24T06:07:14.647Z,6.03
2019-01-24T06:17:19.938Z,7.07
2019-01-24T06:27:25.366Z,8.63
2019-01-24T06:37:30.704Z,7.47
2019-01-24T06:47:36.022Z,6.40
2019-01-24T06:57:41.448Z,7.87
2019-01-24T07:07:46.952Z,8.13
2019-01-24T07:17:52.564Z,8.20
2019-01-24T07:27:57.958Z,7.13
2019-01-24T07:38:03.308Z,7.03
2019-01-24T07:48:08.936Z,8.53
2019-01-24T07:58:14.746Z,8.80
2019-01-24T08:08:20.261Z,8.40
2019-01-24T08:18:25.835Z,9.97
2019-01-24T08:28:31.195Z,8.67
2019-01-24T08:38:36.658Z,9.20
2019-01-24T08:48:42.164Z,8.47
2019-01-24T08:58:47.608Z,9.23
2019-01-24T09:08:52.956Z,9.33
2019-01-24T09:18:58.384Z,9.90
2019-01-24T09:29:03.739Z,6.73
2019-01-24T09:39:09.784Z,7.87
2019-01-24T09:49:15.737Z,7.23
2019-01-24T09:59:21.105Z,8.50
2019-01-24T10:09:26.493Z,9.17
2019-01-24T10:19:31.790Z,9.03
2019-01-24T10:29:37.225Z,8.73
2019-01-24T10:39:42.668Z,9.40
2019-01-24T10:49:48.124Z,7.30
2019-01-24T10:59:53.456Z,7.40
2019-01-24T11:09:58.921Z,8.73
2019-01-24T11:20:05.484Z,5.63
2019-01-24T11:30:13.211Z,8.20
2019-01-24T11:40:18.690Z,8.27
2019-01-24T11:50:24.137Z,8.63
2019-01-24T12:00:36.676Z,7.67
2019-01-24T12:10:42.569Z,6.37
2019-01-24T12:20:48.208Z,6.37
2019-01-24T12:30:53.535Z,6.93
2019-01-24T12:40:59.455Z,6.73
2019-01-24T12:51:04.917Z,6.20
2019-01-24T13:01:10.514Z,5.97
2019-01-24T13:11:15.750Z,6.60
2019-01-24T13:21:21.056Z,5.97
2019-01-24T13:31:26.544Z,5.90
2019-01-24T13:41:32.124Z,6.53
2019-01-24T13:51:37.682Z,5.23
2019-01-24T14:01:43.028Z,6.60
2019-01-24T14:11:48.556Z,7.10
2019-01-24T14:21:55.031Z,7.10
2019-01-24T14:32:00.617Z,5.67
2019-01-24T14:42:06.040Z,5.80
2019-01-24T14:52:11.539Z,5.50
2019-01-24T15:02:17.187Z,5.70
2019-01-24T15:12:22.776Z,7.87
2019-01-24T15:22:28.195Z,7.97
2019-01-24T15:32:33.594Z,7.47
2019-01-24T15:42:39.127Z,6.67
2019-01-24T15:52:44.679Z,7.30
2019-01-24T16:02:50.237Z,7.37
2019-01-24T16:12:55.952Z,7.67
2019-01-24T16:23:01.294Z,7.60
2019-01-24T16:33:08.246Z,8.27
2019-01-24T16:43:13.829Z,8.87
2019-01-24T16:53:19.225Z,7.53
2019-01-24T17:03:24.821Z,7.37
2019-01-24T17:13:30.489Z,9.27
2019-01-24T17:23:36.201Z,10.37
2019-01-24T17:33:41.530Z,8.80
2019-01-24T17:43:47.333Z,8.43
2019-01-24T17:53:52.710Z,11.03
2019-01-24T18:03:59.861Z,8.80
2019-01-24T18:14:05.989Z,9.90
2019-01-24T18:24:11.363Z,9.07
2019-01-24T18:34:16.720Z,12.33
2019-01-24T18:44:22.078Z,10.40
2019-01-24T18:54:28.310Z,10.03
2019-01-24T19:04:33.912Z,8.90
2019-01-24T19:14:39.280Z,9.50
2019-01-24T19:24:44.740Z,9.57
2019-01-24T19:34:51.124Z,10.93
2019-01-24T19:44:56.466Z,9.70
2019-01-24T19:55:01.799Z,8.43
2019-01-24T20:05:08.305Z,8.47
2019-01-24T20:15:16.609Z,6.77
2019-01-24T20:25:24.224Z,8.63
2019-01-24T20:35:41.020Z,7.83
2019-01-24T20:45:46.345Z,6.67
2019-01-24T20:55:52.761Z,6.47
2019-01-24T21:05:58.254Z,8.87
2019-01-24T21:16:03.994Z,8.33
2019-01-24T21:26:09.322Z,9.40
2019-01-24T21:36:14.643Z,8.93
2019-01-24T21:46:20.004Z,8.23
2019-01-24T21:56:25.424Z,8.47
2019-01-24T22:06:30.788Z,8.77
2019-01-24T22:16:36.032Z,10.23
2019-01-24T22:26:41.371Z,9.67
2019-01-24T22:36:47.034Z,7.73
2019-01-24T22:46:52.515Z,8.77
2019-01-24T22:56:57.854Z,8.27
2019-01-24T23:07:03.301Z,7.73
2019-01-24T23:17:08.921Z,7.60
2019-01-24T23:27:14.553Z,8.40
2019-01-24T23:37:20.111Z,7.73
2019-01-24T23:47:25.749Z,7.67
2019-01-24T23:57:31.326Z,8.57
